sensor_id;sensor_type;location;lat;lon;timestamp;P1;durP1;ratioP1;P2;durP2;ratioP2
66669;SDS011;53568;52.164;4.472;2022-12-08T00:01:32;3.01;;;2.01;;
66669;SDS011;53568;52.164;4.472;2022-12-08T00:03:59;3.97;;;2.87;;
66669;SDS011;53568;52.164;4.472;2022-12-08T00:06:36;3.05;;;2.33;;
66669;SDS011;53568;52.164;4.472;2022-12-08T00:12:07;2.24;;;1.82;;
66669;SDS011;53568;52.164;4.472;2022-12-08T00:14:35;2.25;;;1.86;;
66669;SDS011;53568;52.164;4.472;2022-12-08T00:17:03;2.10;;;1.72;;
66669;SDS011;53568;52.164;4.472;2022-12-08T00:19:31;2.09;;;1.70;;
66669;SDS011;53568;52.164;4.472;2022-12-08T00:21:56;2.11;;;1.72;;
66669;SDS011;53568;52.164;4.472;2022-12-08T00:24:23;1.91;;;1.56;;
66669;SDS011;53568;52.164;4.472;2022-12-08T00:26:54;2.59;;;2.03;;
66669;SDS011;53568;52.164;4.472;2022-12-08T00:29:19;1.87;;;1.43;;
66669;SDS011;53568;52.164;4.472;2022-12-08T00:31:45;1.48;;;1.12;;
66669;SDS011;53568;52.164;4.472;2022-12-08T00:34:14;1.84;;;1.35;;
66669;SDS011;53568;52.164;4.472;2022-12-08T00:36:40;1.46;;;1.05;;
66669;SDS011;53568;52.164;4.472;2022-12-08T00:39:06;1.30;;;0.92;;
66669;SDS011;53568;52.164;4.472;2022-12-08T00:41:31;1.42;;;1.00;;
66669;SDS011;53568;52.164;4.472;2022-12-08T00:44:16;1.67;;;1.17;;
66669;SDS011;53568;52.164;4.472;2022-12-08T00:46:45;1.49;;;1.05;;
66669;SDS011;53568;52.164;4.472;2022-12-08T00:49:12;1.94;;;1.34;;
66669;SDS011;53568;52.164;4.472;2022-12-08T00:51:38;2.12;;;1.44;;
66669;SDS011;53568;52.164;4.472;2022-12-08T00:54:04;2.40;;;1.61;;
66669;SDS011;53568;52.164;4.472;2022-12-08T00:56:30;2.11;;;1.40;;
66669;SDS011;53568;52.164;4.472;2022-12-08T00:58:56;2.62;;;1.71;;
66669;SDS011;53568;52.164;4.472;2022-12-08T01:01:22;2.90;;;1.87;;
66669;SDS011;53568;52.164;4.472;2022-12-08T01:03:48;2.69;;;1.71;;
66669;SDS011;53568;52.164;4.472;2022-12-08T01:06:14;3.04;;;1.92;;
66669;SDS011;53568;52.164;4.472;2022-12-08T01:08:40;3.10;;;1.93;;
66669;SDS011;53568;52.164;4.472;2022-12-08T01:11:06;3.15;;;1.93;;
66669;SDS011;53568;52.164;4.472;2022-12-08T01:13:37;4.09;;;2.48;;
66669;SDS011;53568;52.164;4.472;2022-12-08T01:16:04;3.37;;;2.03;;
66669;SDS011;53568;52.164;4.472;2022-12-08T01:18:30;4.12;;;2.46;;
66669;SDS011;53568;52.164;4.472;2022-12-08T01:21:05;3.59;;;2.13;;
66669;SDS011;53568;52.164;4.472;2022-12-08T01:23:32;3.52;;;2.07;;
66669;SDS011;53568;52.164;4.472;2022-12-08T01:26:02;3.86;;;2.27;;
66669;SDS011;53568;52.164;4.472;2022-12-08T01:28:29;3.78;;;2.24;;
66669;SDS011;53568;52.164;4.472;2022-12-08T01:30:55;3.44;;;2.06;;
66669;SDS011;53568;52.164;4.472;2022-12-08T01:33:21;3.48;;;2.05;;
66669;SDS011;53568;52.164;4.472;2022-12-08T01:35:47;3.20;;;1.88;;
66669;SDS011;53568;52.164;4.472;2022-12-08T01:38:12;3.76;;;2.20;;
66669;SDS011;53568;52.164;4.472;2022-12-08T01:40:38;3.31;;;1.94;;
66669;SDS011;53568;52.164;4.472;2022-12-08T01:43:03;3.83;;;2.25;;
66669;SDS011;53568;52.164;4.472;2022-12-08T01:45:30;3.72;;;2.21;;
66669;SDS011;53568;52.164;4.472;2022-12-08T01:48:02;3.94;;;2.35;;
66669;SDS011;53568;52.164;4.472;2022-12-08T01:50:33;3.58;;;2.15;;
66669;SDS011;53568;52.164;4.472;2022-12-08T01:53:07;3.49;;;2.08;;
66669;SDS011;53568;52.164;4.472;2022-12-08T01:55:42;3.27;;;1.94;;
66669;SDS011;53568;52.164;4.472;2022-12-08T01:58:17;3.45;;;2.05;;
66669;SDS011;53568;52.164;4.472;2022-12-08T02:00:48;3.19;;;1.89;;
66669;SDS011;53568;52.164;4.472;2022-12-08T02:06:21;3.31;;;1.94;;
66669;SDS011;53568;52.164;4.472;2022-12-08T02:08:46;2.86;;;1.68;;
66669;SDS011;53568;52.164;4.472;2022-12-08T02:11:14;2.49;;;1.48;;
66669;SDS011;53568;52.164;4.472;2022-12-08T02:13:40;2.50;;;1.50;;
66669;SDS011;53568;52.164;4.472;2022-12-08T02:29:37;1.94;;;1.20;;
66669;SDS011;53568;52.164;4.472;2022-12-08T02:43:50;2.30;;;1.40;;
66669;SDS011;53568;52.164;4.472;2022-12-08T02:46:42;2.32;;;1.41;;
66669;SDS011;53568;52.164;4.472;2022-12-08T02:49:16;3.58;;;2.17;;
66669;SDS011;53568;52.164;4.472;2022-12-08T02:51:41;3.29;;;1.99;;
66669;SDS011;53568;52.164;4.472;2022-12-08T02:54:07;3.13;;;1.89;;
66669;SDS011;53568;52.164;4.472;2022-12-08T03:05:22;3.76;;;2.28;;
66669;SDS011;53568;52.164;4.472;2022-12-08T03:08:21;3.91;;;2.37;;
66669;SDS011;53568;52.164;4.472;2022-12-08T03:11:10;3.30;;;2.01;;
66669;SDS011;53568;52.164;4.472;2022-12-08T03:13:53;2.80;;;1.72;;
66669;SDS011;53568;52.164;4.472;2022-12-08T03:16:24;3.07;;;1.85;;
66669;SDS011;53568;52.164;4.472;2022-12-08T03:18:58;2.93;;;1.75;;
66669;SDS011;53568;52.164;4.472;2022-12-08T03:21:39;2.55;;;1.53;;
66669;SDS011;53568;52.164;4.472;2022-12-08T03:24:08;2.19;;;1.32;;
66669;SDS011;53568;52.164;4.472;2022-12-08T03:29:07;1.31;;;0.79;;
66669;SDS011;53568;52.164;4.472;2022-12-08T03:31:33;1.32;;;0.80;;
66669;SDS011;53568;52.164;4.472;2022-12-08T03:34:05;1.34;;;0.83;;
66669;SDS011;53568;52.164;4.472;2022-12-08T03:36:34;1.48;;;0.92;;
66669;SDS011;53568;52.164;4.472;2022-12-08T03:39:00;1.60;;;0.98;;
66669;SDS011;53568;52.164;4.472;2022-12-08T03:41:26;1.91;;;1.18;;
66669;SDS011;53568;52.164;4.472;2022-12-08T03:43:52;2.49;;;1.53;;
66669;SDS011;53568;52.164;4.472;2022-12-08T03:46:21;2.60;;;1.58;;
66669;SDS011;53568;52.164;4.472;2022-12-08T03:48:49;2.62;;;1.57;;
66669;SDS011;53568;52.164;4.472;2022-12-08T03:51:15;2.44;;;1.46;;
66669;SDS011;53568;52.164;4.472;2022-12-08T03:53:42;2.33;;;1.40;;
66669;SDS011;53568;52.164;4.472;2022-12-08T03:56:25;2.55;;;1.54;;
66669;SDS011;53568;52.164;4.472;2022-12-08T03:58:52;2.11;;;1.26;;
66669;SDS011;53568;52.164;4.472;2022-12-08T04:01:18;2.28;;;1.37;;
66669;SDS011;53568;52.164;4.472;2022-12-08T04:03:44;2.10;;;1.26;;
66669;SDS011;53568;52.164;4.472;2022-12-08T04:06:11;2.70;;;1.61;;
66669;SDS011;53568;52.164;4.472;2022-12-08T04:08:37;1.90;;;1.14;;
66669;SDS011;53568;52.164;4.472;2022-12-08T04:11:03;1.71;;;1.02;;
66669;SDS011;53568;52.164;4.472;2022-12-08T04:13:30;2.06;;;1.22;;
66669;SDS011;53568;52.164;4.472;2022-12-08T04:16:07;2.36;;;1.41;;
66669;SDS011;53568;52.164;4.472;2022-12-08T04:18:34;2.41;;;1.44;;
66669;SDS011;53568;52.164;4.472;2022-12-08T04:21:00;2.76;;;1.64;;
66669;SDS011;53568;52.164;4.472;2022-12-08T04:23:26;2.65;;;1.58;;
66669;SDS011;53568;52.164;4.472;2022-12-08T04:25:53;1.82;;;1.09;;
66669;SDS011;53568;52.164;4.472;2022-12-08T04:28:19;2.36;;;1.42;;
66669;SDS011;53568;52.164;4.472;2022-12-08T04:30:47;1.91;;;1.15;;
66669;SDS011;53568;52.164;4.472;2022-12-08T04:33:13;1.62;;;0.98;;
66669;SDS011;53568;52.164;4.472;2022-12-08T04:35:40;1.66;;;1.01;;
66669;SDS011;53568;52.164;4.472;2022-12-08T04:38:06;1.82;;;1.09;;
66669;SDS011;53568;52.164;4.472;2022-12-08T04:40:32;2.57;;;1.55;;
66669;SDS011;53568;52.164;4.472;2022-12-08T04:42:58;2.88;;;1.74;;
66669;SDS011;53568;52.164;4.472;2022-12-08T04:45:24;2.55;;;1.54;;
66669;SDS011;53568;52.164;4.472;2022-12-08T04:47:51;2.44;;;1.46;;
66669;SDS011;53568;52.164;4.472;2022-12-08T04:50:17;2.83;;;1.72;;
66669;SDS011;53568;52.164;4.472;2022-12-08T04:52:43;2.34;;;1.42;;
66669;SDS011;53568;52.164;4.472;2022-12-08T04:55:08;2.41;;;1.47;;
66669;SDS011;53568;52.164;4.472;2022-12-08T04:57:34;2.77;;;1.69;;
66669;SDS011;53568;52.164;4.472;2022-12-08T05:00:00;2.01;;;1.22;;
66669;SDS011;53568;52.164;4.472;2022-12-08T05:02:28;2.22;;;1.37;;
66669;SDS011;53568;52.164;4.472;2022-12-08T05:04:54;2.39;;;1.48;;
66669;SDS011;53568;52.164;4.472;2022-12-08T05:07:20;2.22;;;1.38;;
66669;SDS011;53568;52.164;4.472;2022-12-08T05:09:46;2.47;;;1.55;;
66669;SDS011;53568;52.164;4.472;2022-12-08T05:12:12;2.42;;;1.53;;
66669;SDS011;53568;52.164;4.472;2022-12-08T05:14:38;2.30;;;1.45;;
66669;SDS011;53568;52.164;4.472;2022-12-08T05:17:05;2.08;;;1.31;;
66669;SDS011;53568;52.164;4.472;2022-12-08T05:19:31;1.55;;;0.97;;
66669;SDS011;53568;52.164;4.472;2022-12-08T05:21:57;1.09;;;0.68;;
66669;SDS011;53568;52.164;4.472;2022-12-08T05:24:22;1.26;;;0.79;;
66669;SDS011;53568;52.164;4.472;2022-12-08T05:26:48;1.51;;;0.94;;
66669;SDS011;53568;52.164;4.472;2022-12-08T05:29:13;1.56;;;0.98;;
66669;SDS011;53568;52.164;4.472;2022-12-08T05:31:39;1.43;;;0.89;;
66669;SDS011;53568;52.164;4.472;2022-12-08T05:34:06;1.50;;;0.93;;
66669;SDS011;53568;52.164;4.472;2022-12-08T05:36:32;1.27;;;0.80;;
66669;SDS011;53568;52.164;4.472;2022-12-08T05:38:58;1.27;;;0.80;;
66669;SDS011;53568;52.164;4.472;2022-12-08T05:41:24;1.40;;;0.88;;
66669;SDS011;53568;52.164;4.472;2022-12-08T05:43:50;0.97;;;0.61;;
66669;SDS011;53568;52.164;4.472;2022-12-08T05:46:16;0.83;;;0.52;;
66669;SDS011;53568;52.164;4.472;2022-12-08T05:48:42;0.75;;;0.47;;
66669;SDS011;53568;52.164;4.472;2022-12-08T05:51:15;1.08;;;0.67;;
66669;SDS011;53568;52.164;4.472;2022-12-08T05:53:44;1.16;;;0.72;;
66669;SDS011;53568;52.164;4.472;2022-12-08T05:56:11;1.20;;;0.75;;
66669;SDS011;53568;52.164;4.472;2022-12-08T05:58:37;1.35;;;0.84;;
66669;SDS011;53568;52.164;4.472;2022-12-08T06:01:02;1.17;;;0.73;;
66669;SDS011;53568;52.164;4.472;2022-12-08T06:03:28;1.05;;;0.66;;
66669;SDS011;53568;52.164;4.472;2022-12-08T06:05:53;0.84;;;0.53;;
66669;SDS011;53568;52.164;4.472;2022-12-08T06:08:22;1.19;;;0.75;;
66669;SDS011;53568;52.164;4.472;2022-12-08T06:10:48;1.19;;;0.75;;
66669;SDS011;53568;52.164;4.472;2022-12-08T06:13:14;1.34;;;0.84;;
66669;SDS011;53568;52.164;4.472;2022-12-08T06:15:41;1.47;;;0.93;;
66669;SDS011;53568;52.164;4.472;2022-12-08T06:18:08;1.50;;;0.96;;
66669;SDS011;53568;52.164;4.472;2022-12-08T06:20:35;1.29;;;0.82;;
66669;SDS011;53568;52.164;4.472;2022-12-08T06:23:00;1.61;;;1.04;;
66669;SDS011;53568;52.164;4.472;2022-12-08T06:25:27;1.90;;;1.24;;
66669;SDS011;53568;52.164;4.472;2022-12-08T06:27:53;1.71;;;1.14;;
66669;SDS011;53568;52.164;4.472;2022-12-08T06:30:19;1.73;;;1.15;;
66669;SDS011;53568;52.164;4.472;2022-12-08T06:32:45;1.75;;;1.18;;
66669;SDS011;53568;52.164;4.472;2022-12-08T06:35:11;1.55;;;1.07;;
66669;SDS011;53568;52.164;4.472;2022-12-08T06:37:37;1.39;;;0.98;;
66669;SDS011;53568;52.164;4.472;2022-12-08T06:40:03;1.33;;;0.95;;
66669;SDS011;53568;52.164;4.472;2022-12-08T06:42:30;1.44;;;1.03;;
66669;SDS011;53568;52.164;4.472;2022-12-08T06:45:08;1.30;;;0.95;;
66669;SDS011;53568;52.164;4.472;2022-12-08T06:47:35;1.28;;;0.94;;
66669;SDS011;53568;52.164;4.472;2022-12-08T06:50:01;1.14;;;0.83;;
66669;SDS011;53568;52.164;4.472;2022-12-08T06:52:27;1.47;;;1.06;;
66669;SDS011;53568;52.164;4.472;2022-12-08T06:54:53;1.22;;;0.87;;
66669;SDS011;53568;52.164;4.472;2022-12-08T06:57:19;1.51;;;1.07;;
66669;SDS011;53568;52.164;4.472;2022-12-08T06:59:45;1.26;;;0.89;;
66669;SDS011;53568;52.164;4.472;2022-12-08T07:02:11;1.17;;;0.83;;
66669;SDS011;53568;52.164;4.472;2022-12-08T07:04:37;1.81;;;1.30;;
66669;SDS011;53568;52.164;4.472;2022-12-08T07:07:03;2.07;;;1.50;;
66669;SDS011;53568;52.164;4.472;2022-12-08T07:09:28;2.47;;;1.82;;
66669;SDS011;53568;52.164;4.472;2022-12-08T07:11:54;2.43;;;1.80;;
66669;SDS011;53568;52.164;4.472;2022-12-08T07:14:20;2.16;;;1.65;;
66669;SDS011;53568;52.164;4.472;2022-12-08T07:16:51;2.20;;;1.72;;
66669;SDS011;53568;52.164;4.472;2022-12-08T07:19:18;1.97;;;1.56;;
66669;SDS011;53568;52.164;4.472;2022-12-08T07:21:44;1.98;;;1.57;;
66669;SDS011;53568;52.164;4.472;2022-12-08T07:24:10;1.39;;;1.11;;
66669;SDS011;53568;52.164;4.472;2022-12-08T07:26:36;1.47;;;1.17;;
66669;SDS011;53568;52.164;4.472;2022-12-08T07:29:02;1.40;;;1.12;;
66669;SDS011;53568;52.164;4.472;2022-12-08T07:31:28;1.46;;;1.18;;
66669;SDS011;53568;52.164;4.472;2022-12-08T07:33:54;1.68;;;1.35;;
66669;SDS011;53568;52.164;4.472;2022-12-08T07:36:21;1.78;;;1.42;;
66669;SDS011;53568;52.164;4.472;2022-12-08T07:38:48;7.15;;;5.98;;
66669;SDS011;53568;52.164;4.472;2022-12-08T07:41:18;5.87;;;5.09;;
66669;SDS011;53568;52.164;4.472;2022-12-08T07:43:46;2.57;;;2.30;;
66669;SDS011;53568;52.164;4.472;2022-12-08T07:46:14;1.54;;;1.36;;
66669;SDS011;53568;52.164;4.472;2022-12-08T07:48:43;1.63;;;1.39;;
66669;SDS011;53568;52.164;4.472;2022-12-08T07:51:11;1.47;;;1.19;;
66669;SDS011;53568;52.164;4.472;2022-12-08T07:53:39;1.39;;;1.09;;
66669;SDS011;53568;52.164;4.472;2022-12-08T07:56:07;1.49;;;1.16;;
66669;SDS011;53568;52.164;4.472;2022-12-08T07:58:34;1.55;;;1.20;;
66669;SDS011;53568;52.164;4.472;2022-12-08T08:01:01;1.80;;;1.36;;
66669;SDS011;53568;52.164;4.472;2022-12-08T08:03:27;1.62;;;1.19;;
66669;SDS011;53568;52.164;4.472;2022-12-08T08:05:53;1.82;;;1.31;;
66669;SDS011;53568;52.164;4.472;2022-12-08T08:08:19;1.87;;;1.32;;
66669;SDS011;53568;52.164;4.472;2022-12-08T08:10:45;1.36;;;0.95;;
66669;SDS011;53568;52.164;4.472;2022-12-08T08:13:11;1.96;;;1.36;;
66669;SDS011;53568;52.164;4.472;2022-12-08T08:15:38;1.99;;;1.41;;
66669;SDS011;53568;52.164;4.472;2022-12-08T08:18:04;1.58;;;1.14;;
66669;SDS011;53568;52.164;4.472;2022-12-08T08:20:31;1.60;;;1.16;;
66669;SDS011;53568;52.164;4.472;2022-12-08T08:22:57;1.65;;;1.19;;
66669;SDS011;53568;52.164;4.472;2022-12-08T08:25:23;1.71;;;1.23;;
66669;SDS011;53568;52.164;4.472;2022-12-08T08:27:49;1.79;;;1.29;;
66669;SDS011;53568;52.164;4.472;2022-12-08T08:30:15;1.94;;;1.41;;
66669;SDS011;53568;52.164;4.472;2022-12-08T08:32:42;2.32;;;1.70;;
66669;SDS011;53568;52.164;4.472;2022-12-08T08:35:08;2.28;;;1.66;;
66669;SDS011;53568;52.164;4.472;2022-12-08T08:37:34;1.99;;;1.43;;
66669;SDS011;53568;52.164;4.472;2022-12-08T08:40:00;2.06;;;1.49;;
66669;SDS011;53568;52.164;4.472;2022-12-08T08:42:26;2.38;;;1.72;;
66669;SDS011;53568;52.164;4.472;2022-12-08T08:44:52;2.28;;;1.63;;
66669;SDS011;53568;52.164;4.472;2022-12-08T08:47:18;2.13;;;1.53;;
66669;SDS011;53568;52.164;4.472;2022-12-08T08:49:44;2.84;;;2.10;;
66669;SDS011;53568;52.164;4.472;2022-12-08T08:52:10;2.58;;;1.99;;
66669;SDS011;53568;52.164;4.472;2022-12-08T08:54:36;2.50;;;1.93;;
66669;SDS011;53568;52.164;4.472;2022-12-08T08:57:02;2.22;;;1.72;;
66669;SDS011;53568;52.164;4.472;2022-12-08T08:59:28;2.04;;;1.59;;
66669;SDS011;53568;52.164;4.472;2022-12-08T09:01:57;2.21;;;1.77;;
66669;SDS011;53568;52.164;4.472;2022-12-08T09:04:23;2.88;;;2.31;;
66669;SDS011;53568;52.164;4.472;2022-12-08T09:06:49;2.94;;;2.39;;
66669;SDS011;53568;52.164;4.472;2022-12-08T09:09:15;2.44;;;2.08;;
66669;SDS011;53568;52.164;4.472;2022-12-08T09:11:41;2.82;;;2.47;;
66669;SDS011;53568;52.164;4.472;2022-12-08T09:14:09;2.21;;;1.97;;
66669;SDS011;53568;52.164;4.472;2022-12-08T09:16:36;2.56;;;2.33;;
66669;SDS011;53568;52.164;4.472;2022-12-08T09:19:01;2.72;;;2.49;;
66669;SDS011;53568;52.164;4.472;2022-12-08T09:21:27;2.81;;;2.60;;
66669;SDS011;53568;52.164;4.472;2022-12-08T09:23:54;2.57;;;2.37;;
66669;SDS011;53568;52.164;4.472;2022-12-08T09:26:22;2.94;;;2.72;;
66669;SDS011;53568;52.164;4.472;2022-12-08T09:28:49;2.57;;;2.38;;
66669;SDS011;53568;52.164;4.472;2022-12-08T09:31:16;2.34;;;2.22;;
66669;SDS011;53568;52.164;4.472;2022-12-08T09:33:44;2.50;;;2.38;;
66669;SDS011;53568;52.164;4.472;2022-12-08T09:36:10;2.36;;;2.23;;
66669;SDS011;53568;52.164;4.472;2022-12-08T09:38:36;1.53;;;1.43;;
66669;SDS011;53568;52.164;4.472;2022-12-08T09:41:03;1.61;;;1.46;;
66669;SDS011;53568;52.164;4.472;2022-12-08T09:46:25;1.77;;;1.55;;
66669;SDS011;53568;52.164;4.472;2022-12-08T09:48:56;1.62;;;1.43;;
66669;SDS011;53568;52.164;4.472;2022-12-08T09:51:32;1.68;;;1.48;;
66669;SDS011;53568;52.164;4.472;2022-12-08T09:54:08;2.07;;;1.83;;
66669;SDS011;53568;52.164;4.472;2022-12-08T09:56:41;2.19;;;1.92;;
66669;SDS011;53568;52.164;4.472;2022-12-08T09:59:27;1.81;;;1.58;;
66669;SDS011;53568;52.164;4.472;2022-12-08T10:01:56;2.12;;;1.84;;
66669;SDS011;53568;52.164;4.472;2022-12-08T10:06:59;2.30;;;1.95;;
66669;SDS011;53568;52.164;4.472;2022-12-08T10:18:18;3.39;;;2.91;;
66669;SDS011;53568;52.164;4.472;2022-12-08T10:20:49;2.56;;;2.19;;
66669;SDS011;53568;52.164;4.472;2022-12-08T10:25:48;1.69;;;1.44;;
66669;SDS011;53568;52.164;4.472;2022-12-08T10:28:21;2.07;;;1.73;;
66669;SDS011;53568;52.164;4.472;2022-12-08T10:30:47;1.92;;;1.58;;
66669;SDS011;53568;52.164;4.472;2022-12-08T10:33:17;1.88;;;1.53;;
66669;SDS011;53568;52.164;4.472;2022-12-08T10:35:46;2.05;;;1.67;;
66669;SDS011;53568;52.164;4.472;2022-12-08T10:38:26;2.09;;;1.73;;
66669;SDS011;53568;52.164;4.472;2022-12-08T10:43:37;2.27;;;1.87;;
66669;SDS011;53568;52.164;4.472;2022-12-08T10:46:09;2.27;;;1.89;;
66669;SDS011;53568;52.164;4.472;2022-12-08T10:51:22;2.26;;;1.87;;
66669;SDS011;53568;52.164;4.472;2022-12-08T10:53:50;2.09;;;1.70;;
66669;SDS011;53568;52.164;4.472;2022-12-08T10:56:16;1.85;;;1.52;;
66669;SDS011;53568;52.164;4.472;2022-12-08T10:58:43;2.39;;;1.99;;
66669;SDS011;53568;52.164;4.472;2022-12-08T11:04:04;2.43;;;2.14;;
66669;SDS011;53568;52.164;4.472;2022-12-08T11:06:40;1.96;;;1.77;;
66669;SDS011;53568;52.164;4.472;2022-12-08T11:17:06;1.95;;;1.71;;
66669;SDS011;53568;52.164;4.472;2022-12-08T11:19:38;1.95;;;1.65;;
66669;SDS011;53568;52.164;4.472;2022-12-08T11:22:23;2.38;;;2.01;;
66669;SDS011;53568;52.164;4.472;2022-12-08T11:25:01;2.15;;;1.83;;
66669;SDS011;53568;52.164;4.472;2022-12-08T11:27:36;2.22;;;1.90;;
66669;SDS011;53568;52.164;4.472;2022-12-08T11:30:14;1.86;;;1.62;;
66669;SDS011;53568;52.164;4.472;2022-12-08T11:32:44;1.81;;;1.60;;
66669;SDS011;53568;52.164;4.472;2022-12-08T11:35:36;1.73;;;1.55;;
66669;SDS011;53568;52.164;4.472;2022-12-08T11:38:21;1.45;;;1.31;;
66669;SDS011;53568;52.164;4.472;2022-12-08T11:40:51;1.63;;;1.50;;
66669;SDS011;53568;52.164;4.472;2022-12-08T11:45:57;1.65;;;1.53;;
66669;SDS011;53568;52.164;4.472;2022-12-08T11:48:44;1.67;;;1.55;;
66669;SDS011;53568;52.164;4.472;2022-12-08T11:51:31;1.79;;;1.66;;
66669;SDS011;53568;52.164;4.472;2022-12-08T11:56:46;1.99;;;1.85;;
66669;SDS011;53568;52.164;4.472;2022-12-08T11:59:36;1.87;;;1.74;;
66669;SDS011;53568;52.164;4.472;2022-12-08T12:02:33;1.96;;;1.84;;
66669;SDS011;53568;52.164;4.472;2022-12-08T12:14:16;1.83;;;1.75;;
66669;SDS011;53568;52.164;4.472;2022-12-08T12:16:56;1.89;;;1.82;;
66669;SDS011;53568;52.164;4.472;2022-12-08T12:19:25;2.18;;;2.10;;
66669;SDS011;53568;52.164;4.472;2022-12-08T12:21:57;1.98;;;1.91;;
66669;SDS011;53568;52.164;4.472;2022-12-08T12:24:36;2.03;;;1.98;;
66669;SDS011;53568;52.164;4.472;2022-12-08T12:29:42;2.22;;;2.15;;
66669;SDS011;53568;52.164;4.472;2022-12-08T12:32:13;2.03;;;1.94;;
66669;SDS011;53568;52.164;4.472;2022-12-08T12:34:46;2.34;;;2.26;;
66669;SDS011;53568;52.164;4.472;2022-12-08T12:37:17;2.08;;;1.98;;
66669;SDS011;53568;52.164;4.472;2022-12-08T12:40:27;1.88;;;1.80;;
66669;SDS011;53568;52.164;4.472;2022-12-08T12:45:24;1.59;;;1.53;;
66669;SDS011;53568;52.164;4.472;2022-12-08T12:53:02;1.72;;;1.67;;
66669;SDS011;53568;52.164;4.472;2022-12-08T13:03:37;1.95;;;1.84;;
66669;SDS011;53568;52.164;4.472;2022-12-08T13:06:10;1.83;;;1.77;;
66669;SDS011;53568;52.164;4.472;2022-12-08T13:08:40;1.97;;;1.91;;
66669;SDS011;53568;52.164;4.472;2022-12-08T13:11:16;1.89;;;1.85;;
66669;SDS011;53568;52.164;4.472;2022-12-08T13:13:56;2.39;;;2.33;;
66669;SDS011;53568;52.164;4.472;2022-12-08T13:16:25;3.08;;;2.97;;
66669;SDS011;53568;52.164;4.472;2022-12-08T13:18:56;2.40;;;2.31;;
66669;SDS011;53568;52.164;4.472;2022-12-08T13:21:36;2.25;;;2.15;;
66669;SDS011;53568;52.164;4.472;2022-12-08T13:26:45;2.90;;;2.77;;
66669;SDS011;53568;52.164;4.472;2022-12-08T13:29:22;2.78;;;2.64;;
66669;SDS011;53568;52.164;4.472;2022-12-08T13:31:56;2.70;;;2.58;;
66669;SDS011;53568;52.164;4.472;2022-12-08T13:34:50;2.70;;;2.63;;
66669;SDS011;53568;52.164;4.472;2022-12-08T13:37:38;2.58;;;2.53;;
66669;SDS011;53568;52.164;4.472;2022-12-08T13:40:15;2.44;;;2.39;;
66669;SDS011;53568;52.164;4.472;2022-12-08T13:42:50;2.59;;;2.52;;
66669;SDS011;53568;52.164;4.472;2022-12-08T13:45:46;2.53;;;2.48;;
66669;SDS011;53568;52.164;4.472;2022-12-08T13:48:23;2.88;;;2.83;;
66669;SDS011;53568;52.164;4.472;2022-12-08T13:51:09;3.18;;;3.14;;
66669;SDS011;53568;52.164;4.472;2022-12-08T13:53:54;3.81;;;3.78;;
66669;SDS011;53568;52.164;4.472;2022-12-08T13:56:25;4.28;;;4.25;;
66669;SDS011;53568;52.164;4.472;2022-12-08T13:59:41;4.27;;;4.25;;
66669;SDS011;53568;52.164;4.472;2022-12-08T14:01:43;4.05;;;4.05;;
66669;SDS011;53568;52.164;4.472;2022-12-08T14:04:19;3.97;;;3.97;;
66669;SDS011;53568;52.164;4.472;2022-12-08T14:06:51;4.01;;;4.00;;
66669;SDS011;53568;52.164;4.472;2022-12-08T14:09:23;3.70;;;3.70;;
66669;SDS011;53568;52.164;4.472;2022-12-08T14:12:00;4.01;;;4.01;;
66669;SDS011;53568;52.164;4.472;2022-12-08T14:14:58;4.43;;;4.43;;
66669;SDS011;53568;52.164;4.472;2022-12-08T14:17:27;4.39;;;4.39;;
66669;SDS011;53568;52.164;4.472;2022-12-08T14:19:54;4.24;;;4.24;;
66669;SDS011;53568;52.164;4.472;2022-12-08T14:22:30;4.16;;;4.16;;
66669;SDS011;53568;52.164;4.472;2022-12-08T14:24:58;4.03;;;4.03;;
66669;SDS011;53568;52.164;4.472;2022-12-08T14:27:25;4.08;;;4.08;;
66669;SDS011;53568;52.164;4.472;2022-12-08T14:29:57;4.08;;;4.08;;
66669;SDS011;53568;52.164;4.472;2022-12-08T14:32:33;4.35;;;4.35;;
66669;SDS011;53568;52.164;4.472;2022-12-08T14:37:32;3.82;;;3.82;;
66669;SDS011;53568;52.164;4.472;2022-12-08T14:40:09;4.13;;;4.13;;
66669;SDS011;53568;52.164;4.472;2022-12-08T14:42:48;5.72;;;5.72;;
66669;SDS011;53568;52.164;4.472;2022-12-08T14:45:19;3.52;;;3.52;;
66669;SDS011;53568;52.164;4.472;2022-12-08T14:47:45;4.25;;;4.25;;
66669;SDS011;53568;52.164;4.472;2022-12-08T14:53:15;3.03;;;3.03;;
66669;SDS011;53568;52.164;4.472;2022-12-08T14:55:43;3.08;;;3.08;;
66669;SDS011;53568;52.164;4.472;2022-12-08T14:58:29;2.72;;;2.72;;
66669;SDS011;53568;52.164;4.472;2022-12-08T15:00:56;3.07;;;3.07;;
66669;SDS011;53568;52.164;4.472;2022-12-08T15:03:24;2.79;;;2.79;;
66669;SDS011;53568;52.164;4.472;2022-12-08T15:05:59;7.81;;;7.79;;
66669;SDS011;53568;52.164;4.472;2022-12-08T15:08:30;3.42;;;3.42;;
66669;SDS011;53568;52.164;4.472;2022-12-08T15:11:18;3.87;;;3.87;;
66669;SDS011;53568;52.164;4.472;2022-12-08T15:13:54;3.46;;;3.46;;
66669;SDS011;53568;52.164;4.472;2022-12-08T15:16:29;3.04;;;3.04;;
66669;SDS011;53568;52.164;4.472;2022-12-08T15:19:13;3.20;;;3.20;;
66669;SDS011;53568;52.164;4.472;2022-12-08T15:21:41;3.40;;;3.40;;
66669;SDS011;53568;52.164;4.472;2022-12-08T15:24:12;3.36;;;3.36;;
66669;SDS011;53568;52.164;4.472;2022-12-08T15:26:44;3.67;;;3.67;;
66669;SDS011;53568;52.164;4.472;2022-12-08T15:29:22;4.09;;;4.09;;
66669;SDS011;53568;52.164;4.472;2022-12-08T15:31:50;4.67;;;4.67;;
66669;SDS011;53568;52.164;4.472;2022-12-08T15:34:17;4.74;;;4.74;;
66669;SDS011;53568;52.164;4.472;2022-12-08T15:36:44;4.46;;;4.46;;
66669;SDS011;53568;52.164;4.472;2022-12-08T15:39:19;4.69;;;4.69;;
66669;SDS011;53568;52.164;4.472;2022-12-08T15:41:50;4.55;;;4.55;;
66669;SDS011;53568;52.164;4.472;2022-12-08T15:44:15;4.39;;;4.39;;
66669;SDS011;53568;52.164;4.472;2022-12-08T15:46:41;4.24;;;4.24;;
66669;SDS011;53568;52.164;4.472;2022-12-08T15:49:15;4.12;;;4.12;;
66669;SDS011;53568;52.164;4.472;2022-12-08T15:51:43;4.41;;;4.41;;
66669;SDS011;53568;52.164;4.472;2022-12-08T15:54:09;4.41;;;4.41;;
66669;SDS011;53568;52.164;4.472;2022-12-08T15:56:36;4.56;;;4.56;;
66669;SDS011;53568;52.164;4.472;2022-12-08T15:59:12;5.08;;;5.08;;
66669;SDS011;53568;52.164;4.472;2022-12-08T16:01:42;6.32;;;6.31;;
66669;SDS011;53568;52.164;4.472;2022-12-08T16:04:11;6.57;;;6.56;;
66669;SDS011;53568;52.164;4.472;2022-12-08T16:06:40;5.81;;;5.81;;
66669;SDS011;53568;52.164;4.472;2022-12-08T16:09:30;5.52;;;5.52;;
66669;SDS011;53568;52.164;4.472;2022-12-08T16:11:56;5.18;;;5.18;;
66669;SDS011;53568;52.164;4.472;2022-12-08T16:14:41;5.36;;;5.36;;
66669;SDS011;53568;52.164;4.472;2022-12-08T16:17:17;5.41;;;5.40;;
66669;SDS011;53568;52.164;4.472;2022-12-08T16:19:43;5.57;;;5.57;;
66669;SDS011;53568;52.164;4.472;2022-12-08T16:22:14;5.50;;;5.49;;
66669;SDS011;53568;52.164;4.472;2022-12-08T16:24:42;5.49;;;5.49;;
66669;SDS011;53568;52.164;4.472;2022-12-08T16:27:11;5.94;;;5.94;;
66669;SDS011;53568;52.164;4.472;2022-12-08T16:29:46;5.97;;;5.94;;
66669;SDS011;53568;52.164;4.472;2022-12-08T16:32:13;5.98;;;5.93;;
66669;SDS011;53568;52.164;4.472;2022-12-08T16:34:39;5.64;;;5.60;;
66669;SDS011;53568;52.164;4.472;2022-12-08T16:37:05;4.53;;;4.50;;
66669;SDS011;53568;52.164;4.472;2022-12-08T16:39:31;3.85;;;3.84;;
66669;SDS011;53568;52.164;4.472;2022-12-08T16:41:57;3.55;;;3.52;;
66669;SDS011;53568;52.164;4.472;2022-12-08T16:44:41;3.42;;;3.35;;
66669;SDS011;53568;52.164;4.472;2022-12-08T16:47:07;3.14;;;3.04;;
66669;SDS011;53568;52.164;4.472;2022-12-08T16:49:35;3.72;;;3.61;;
66669;SDS011;53568;52.164;4.472;2022-12-08T16:52:03;3.42;;;3.37;;
66669;SDS011;53568;52.164;4.472;2022-12-08T16:54:29;3.29;;;3.22;;
66669;SDS011;53568;52.164;4.472;2022-12-08T16:56:55;3.05;;;2.98;;
66669;SDS011;53568;52.164;4.472;2022-12-08T16:59:21;3.40;;;3.34;;
66669;SDS011;53568;52.164;4.472;2022-12-08T17:01:47;3.93;;;3.80;;